sensor_id;sensor_type;location;lat;lon;timestamp;P1;durP1;ratioP1;P2;durP2;ratioP2
53315;SDS011;39204;53.896;11.432;2023-04-24T05:15:10;9.63;;;5.27;;
53315;SDS011;39204;53.896;11.432;2023-04-24T05:16:41;6.00;;;4.60;;
53315;SDS011;39204;53.896;11.432;2023-04-24T05:18:11;6.53;;;4.50;;
53315;SDS011;39204;53.896;11.432;2023-04-24T05:19:42;6.93;;;4.53;;
53315;SDS011;39204;53.896;11.432;2023-04-24T05:21:12;8.55;;;4.63;;
53315;SDS011;39204;53.896;11.432;2023-04-24T05:22:42;4.85;;;4.10;;
53315;SDS011;39204;53.896;11.432;2023-04-24T05:24:13;8.40;;;5.72;;
53315;SDS011;39204;53.896;11.432;2023-04-24T05:25:43;6.25;;;4.20;;
53315;SDS011;39204;53.896;11.432;2023-04-24T05:27:13;5.15;;;3.78;;
53315;SDS011;39204;53.896;11.432;2023-04-24T05:28:43;5.63;;;4.32;;
53315;SDS011;39204;53.896;11.432;2023-04-24T05:30:14;7.10;;;4.38;;
53315;SDS011;39204;53.896;11.432;2023-04-24T05:31:44;7.88;;;4.47;;
53315;SDS011;39204;53.896;11.432;2023-04-24T05:33:14;5.53;;;4.32;;
53315;SDS011;39204;53.896;11.432;2023-04-24T05:34:45;5.90;;;3.90;;
53315;SDS011;39204;53.896;11.432;2023-04-24T05:36:15;5.55;;;4.10;;
53315;SDS011;39204;53.896;11.432;2023-04-24T05:37:45;7.95;;;4.55;;
53315;SDS011;39204;53.896;11.432;2023-04-24T05:39:16;4.43;;;3.40;;
53315;SDS011;39204;53.896;11.432;2023-04-24T05:40:46;6.85;;;3.90;;
53315;SDS011;39204;53.896;11.432;2023-04-24T05:42:17;4.35;;;3.08;;
53315;SDS011;39204;53.896;11.432;2023-04-24T05:43:47;3.50;;;2.90;;
53315;SDS011;39204;53.896;11.432;2023-04-24T05:45:17;6.22;;;3.15;;
53315;SDS011;39204;53.896;11.432;2023-04-24T05:46:47;4.55;;;3.00;;
53315;SDS011;39204;53.896;11.432;2023-04-24T05:48:18;4.93;;;3.45;;
53315;SDS011;39204;53.896;11.432;2023-04-24T05:49:48;3.88;;;2.97;;
53315;SDS011;39204;53.896;11.432;2023-04-24T05:51:18;3.42;;;3.00;;
53315;SDS011;39204;53.896;11.432;2023-04-24T05:52:49;3.90;;;3.20;;
53315;SDS011;39204;53.896;11.432;2023-04-24T05:54:19;3.85;;;3.20;;
53315;SDS011;39204;53.896;11.432;2023-04-24T05:55:49;2.95;;;2.63;;
53315;SDS011;39204;53.896;11.432;2023-04-24T05:57:19;3.70;;;3.13;;
53315;SDS011;39204;53.896;11.432;2023-04-24T05:58:50;3.80;;;2.90;;
53315;SDS011;39204;53.896;11.432;2023-04-24T06:00:20;5.85;;;3.00;;
53315;SDS011;39204;53.896;11.432;2023-04-24T06:01:50;4.00;;;2.50;;
53315;SDS011;39204;53.896;11.432;2023-04-24T06:03:21;4.63;;;2.53;;
53315;SDS011;39204;53.896;11.432;2023-04-24T06:04:51;4.32;;;3.00;;
53315;SDS011;39204;53.896;11.432;2023-04-24T06:06:21;3.28;;;2.60;;
53315;SDS011;39204;53.896;11.432;2023-04-24T06:07:53;3.42;;;2.78;;
53315;SDS011;39204;53.896;11.432;2023-04-24T06:09:24;4.15;;;2.80;;
53315;SDS011;39204;53.896;11.432;2023-04-24T06:10:54;3.55;;;2.70;;
53315;SDS011;39204;53.896;11.432;2023-04-24T06:12:25;3.05;;;2.50;;
53315;SDS011;39204;53.896;11.432;2023-04-24T06:13:55;2.65;;;2.42;;
53315;SDS011;39204;53.896;11.432;2023-04-24T06:15:29;5.07;;;2.53;;
53315;SDS011;39204;53.896;11.432;2023-04-24T06:17:03;3.03;;;2.30;;
53315;SDS011;39204;53.896;11.432;2023-04-24T06:18:33;3.00;;;2.63;;
53315;SDS011;39204;53.896;11.432;2023-04-24T06:20:03;4.15;;;2.60;;
53315;SDS011;39204;53.896;11.432;2023-04-24T06:21:35;3.92;;;2.50;;
53315;SDS011;39204;53.896;11.432;2023-04-24T06:23:05;3.25;;;2.20;;
53315;SDS011;39204;53.896;11.432;2023-04-24T06:24:36;3.90;;;2.20;;
53315;SDS011;39204;53.896;11.432;2023-04-24T06:26:06;4.15;;;2.33;;
53315;SDS011;39204;53.896;11.432;2023-04-24T06:27:37;3.13;;;2.47;;
53315;SDS011;39204;53.896;11.432;2023-04-24T06:29:07;4.32;;;2.33;;
53315;SDS011;39204;53.896;11.432;2023-04-24T06:30:37;2.60;;;2.15;;
53315;SDS011;39204;53.896;11.432;2023-04-24T06:32:07;3.15;;;2.30;;
53315;SDS011;39204;53.896;11.432;2023-04-24T06:33:38;3.08;;;2.33;;
53315;SDS011;39204;53.896;11.432;2023-04-24T06:35:08;5.03;;;2.60;;
53315;SDS011;39204;53.896;11.432;2023-04-24T06:36:39;2.72;;;2.33;;
53315;SDS011;39204;53.896;11.432;2023-04-24T06:38:10;4.68;;;3.35;;
53315;SDS011;39204;53.896;11.432;2023-04-24T06:39:40;18.63;;;3.67;;
53315;SDS011;39204;53.896;11.432;2023-04-24T06:41:10;3.05;;;2.60;;
53315;SDS011;39204;53.896;11.432;2023-04-24T06:42:40;4.18;;;2.60;;
53315;SDS011;39204;53.896;11.432;2023-04-24T06:44:12;8.50;;;2.45;;
53315;SDS011;39204;53.896;11.432;2023-04-24T06:45:44;3.42;;;2.60;;
53315;SDS011;39204;53.896;11.432;2023-04-24T06:47:15;4.63;;;2.67;;
53315;SDS011;39204;53.896;11.432;2023-04-24T06:48:45;4.13;;;2.50;;
53315;SDS011;39204;53.896;11.432;2023-04-24T06:50:15;4.32;;;3.30;;
53315;SDS011;39204;53.896;11.432;2023-04-24T06:51:46;3.40;;;2.25;;
53315;SDS011;39204;53.896;11.432;2023-04-24T06:53:16;3.90;;;2.53;;
53315;SDS011;39204;53.896;11.432;2023-04-24T06:54:47;5.93;;;2.25;;
53315;SDS011;39204;53.896;11.432;2023-04-24T06:56:17;2.95;;;2.13;;
53315;SDS011;39204;53.896;11.432;2023-04-24T06:57:47;2.25;;;2.05;;
53315;SDS011;39204;53.896;11.432;2023-04-24T06:59:18;2.47;;;2.05;;
53315;SDS011;39204;53.896;11.432;2023-04-24T07:00:48;3.35;;;2.30;;
53315;SDS011;39204;53.896;11.432;2023-04-24T07:02:18;3.20;;;2.08;;
53315;SDS011;39204;53.896;11.432;2023-04-24T07:03:48;2.72;;;2.20;;
53315;SDS011;39204;53.896;11.432;2023-04-24T07:05:19;2.03;;;1.85;;
53315;SDS011;39204;53.896;11.432;2023-04-24T07:06:53;2.25;;;1.98;;
53315;SDS011;39204;53.896;11.432;2023-04-24T07:08:27;3.42;;;2.05;;
53315;SDS011;39204;53.896;11.432;2023-04-24T07:10:00;2.28;;;1.80;;
53315;SDS011;39204;53.896;11.432;2023-04-24T07:11:30;3.00;;;2.05;;
53315;SDS011;39204;53.896;11.432;2023-04-24T07:13:01;1.95;;;1.80;;
53315;SDS011;39204;53.896;11.432;2023-04-24T07:14:31;2.40;;;2.05;;
53315;SDS011;39204;53.896;11.432;2023-04-24T07:16:02;2.80;;;2.00;;
53315;SDS011;39204;53.896;11.432;2023-04-24T07:17:32;2.50;;;2.03;;
53315;SDS011;39204;53.896;11.432;2023-04-24T07:19:02;2.83;;;2.03;;
53315;SDS011;39204;53.896;11.432;2023-04-24T07:20:32;4.72;;;2.00;;
53315;SDS011;39204;53.896;11.432;2023-04-24T07:22:03;2.05;;;1.70;;
53315;SDS011;39204;53.896;11.432;2023-04-24T07:23:34;2.30;;;1.70;;
53315;SDS011;39204;53.896;11.432;2023-04-24T07:25:04;2.78;;;1.67;;
53315;SDS011;39204;53.896;11.432;2023-04-24T07:26:35;1.52;;;1.42;;
53315;SDS011;39204;53.896;11.432;2023-04-24T07:28:05;2.75;;;1.65;;
53315;SDS011;39204;53.896;11.432;2023-04-24T07:29:35;2.08;;;1.48;;
53315;SDS011;39204;53.896;11.432;2023-04-24T07:31:06;1.50;;;1.40;;
53315;SDS011;39204;53.896;11.432;2023-04-24T07:32:37;1.75;;;1.35;;
53315;SDS011;39204;53.896;11.432;2023-04-24T07:34:08;1.40;;;1.30;;
53315;SDS011;39204;53.896;11.432;2023-04-24T07:35:38;2.00;;;1.70;;
53315;SDS011;39204;53.896;11.432;2023-04-24T07:37:08;3.60;;;1.58;;
53315;SDS011;39204;53.896;11.432;2023-04-24T07:38:39;1.70;;;1.60;;
53315;SDS011;39204;53.896;11.432;2023-04-24T07:40:09;1.63;;;1.50;;
53315;SDS011;39204;53.896;11.432;2023-04-24T07:41:40;2.15;;;1.90;;
53315;SDS011;39204;53.896;11.432;2023-04-24T07:43:11;1.40;;;1.30;;
53315;SDS011;39204;53.896;11.432;2023-04-24T07:44:41;2.35;;;1.60;;
53315;SDS011;39204;53.896;11.432;2023-04-24T07:46:11;4.15;;;1.80;;
53315;SDS011;39204;53.896;11.432;2023-04-24T07:47:41;1.60;;;1.50;;
53315;SDS011;39204;53.896;11.432;2023-04-24T07:49:13;2.55;;;1.70;;
53315;SDS011;39204;53.896;11.432;2023-04-24T07:50:44;1.63;;;1.52;;
53315;SDS011;39204;53.896;11.432;2023-04-24T07:52:15;9.07;;;1.98;;
53315;SDS011;39204;53.896;11.432;2023-04-24T07:53:45;1.95;;;1.70;;
53315;SDS011;39204;53.896;11.432;2023-04-24T07:55:15;1.70;;;1.60;;
53315;SDS011;39204;53.896;11.432;2023-04-24T07:56:46;2.70;;;2.00;;
53315;SDS011;39204;53.896;11.432;2023-04-24T07:58:16;2.13;;;1.65;;
53315;SDS011;39204;53.896;11.432;2023-04-24T07:59:46;2.20;;;1.50;;
53315;SDS011;39204;53.896;11.432;2023-04-24T08:01:16;2.15;;;1.98;;
53315;SDS011;39204;53.896;11.432;2023-04-24T08:02:47;4.03;;;2.20;;
53315;SDS011;39204;53.896;11.432;2023-04-24T08:04:17;2.95;;;2.03;;
53315;SDS011;39204;53.896;11.432;2023-04-24T08:05:48;2.25;;;2.05;;
53315;SDS011;39204;53.896;11.432;2023-04-24T08:07:18;2.88;;;2.20;;
53315;SDS011;39204;53.896;11.432;2023-04-24T08:08:48;2.10;;;1.90;;
53315;SDS011;39204;53.896;11.432;2023-04-24T08:10:19;2.05;;;1.85;;
53315;SDS011;39204;53.896;11.432;2023-04-24T08:11:49;2.67;;;2.10;;
53315;SDS011;39204;53.896;11.432;2023-04-24T08:13:19;2.08;;;1.73;;
53315;SDS011;39204;53.896;11.432;2023-04-24T08:14:50;2.75;;;2.28;;
53315;SDS011;39204;53.896;11.432;2023-04-24T08:16:20;3.30;;;2.03;;
53315;SDS011;39204;53.896;11.432;2023-04-24T08:17:51;2.20;;;1.80;;
53315;SDS011;39204;53.896;11.432;2023-04-24T08:19:21;1.95;;;1.67;;
53315;SDS011;39204;53.896;11.432;2023-04-24T08:20:52;1.67;;;1.58;;
53315;SDS011;39204;53.896;11.432;2023-04-24T08:22:22;1.73;;;1.55;;
53315;SDS011;39204;53.896;11.432;2023-04-24T08:23:52;2.05;;;1.50;;
53315;SDS011;39204;53.896;11.432;2023-04-24T08:25:23;1.45;;;1.33;;
53315;SDS011;39204;53.896;11.432;2023-04-24T08:26:54;1.83;;;1.50;;
53315;SDS011;39204;53.896;11.432;2023-04-24T08:28:26;2.00;;;1.58;;
53315;SDS011;39204;53.896;11.432;2023-04-24T08:29:57;2.75;;;1.50;;
53315;SDS011;39204;53.896;11.432;2023-04-24T08:31:28;2.30;;;1.60;;
53315;SDS011;39204;53.896;11.432;2023-04-24T08:32:59;1.90;;;1.45;;
53315;SDS011;39204;53.896;11.432;2023-04-24T08:34:29;2.92;;;1.40;;
53315;SDS011;39204;53.896;11.432;2023-04-24T08:36:01;2.00;;;1.60;;
53315;SDS011;39204;53.896;11.432;2023-04-24T08:37:32;2.38;;;1.60;;
53315;SDS011;39204;53.896;11.432;2023-04-24T08:39:03;2.17;;;1.70;;
53315;SDS011;39204;53.896;11.432;2023-04-24T08:40:34;1.90;;;1.50;;
53315;SDS011;39204;53.896;11.432;2023-04-24T08:42:05;1.80;;;1.50;;
53315;SDS011;39204;53.896;11.432;2023-04-24T08:43:37;2.92;;;1.23;;
53315;SDS011;39204;53.896;11.432;2023-04-24T08:45:09;1.23;;;1.13;;
53315;SDS011;39204;53.896;11.432;2023-04-24T08:46:42;1.85;;;1.35;;
53315;SDS011;39204;53.896;11.432;2023-04-24T08:48:15;1.80;;;1.40;;
53315;SDS011;39204;53.896;11.432;2023-04-24T08:49:46;1.83;;;1.60;;
53315;SDS011;39204;53.896;11.432;2023-04-24T08:51:18;2.53;;;1.45;;
53315;SDS011;39204;53.896;11.432;2023-04-24T08:52:50;3.30;;;1.45;;
53315;SDS011;39204;53.896;11.432;2023-04-24T08:54:23;1.60;;;1.50;;
53315;SDS011;39204;53.896;11.432;2023-04-24T08:55:55;1.38;;;1.20;;
53315;SDS011;39204;53.896;11.432;2023-04-24T08:57:26;2.17;;;1.35;;
53315;SDS011;39204;53.896;11.432;2023-04-24T08:58:57;2.80;;;1.77;;
53315;SDS011;39204;53.896;11.432;2023-04-24T09:00:27;1.98;;;1.45;;
53315;SDS011;39204;53.896;11.432;2023-04-24T09:01:58;2.20;;;2.00;;
53315;SDS011;39204;53.896;11.432;2023-04-24T09:03:29;2.00;;;1.50;;
53315;SDS011;39204;53.896;11.432;2023-04-24T09:05:01;1.42;;;1.33;;
53315;SDS011;39204;53.896;11.432;2023-04-24T09:06:32;1.80;;;1.30;;
53315;SDS011;39204;53.896;11.432;2023-04-24T09:08:04;1.65;;;1.50;;
53315;SDS011;39204;53.896;11.432;2023-04-24T09:09:35;1.85;;;1.60;;
53315;SDS011;39204;53.896;11.432;2023-04-24T09:11:08;1.40;;;1.30;;
53315;SDS011;39204;53.896;11.432;2023-04-24T09:12:39;1.58;;;1.40;;
53315;SDS011;39204;53.896;11.432;2023-04-24T09:14:11;2.42;;;1.40;;
53315;SDS011;39204;53.896;11.432;2023-04-24T09:15:42;3.53;;;2.20;;
53315;SDS011;39204;53.896;11.432;2023-04-24T09:17:12;1.73;;;1.30;;
53315;SDS011;39204;53.896;11.432;2023-04-24T09:18:42;1.83;;;1.17;;
53315;SDS011;39204;53.896;11.432;2023-04-24T09:20:13;1.27;;;1.17;;
53315;SDS011;39204;53.896;11.432;2023-04-24T09:21:45;3.50;;;1.33;;
53315;SDS011;39204;53.896;11.432;2023-04-24T09:23:19;2.40;;;1.38;;
53315;SDS011;39204;53.896;11.432;2023-04-24T09:24:59;1.85;;;1.42;;
53315;SDS011;39204;53.896;11.432;2023-04-24T09:26:33;1.98;;;1.50;;
53315;SDS011;39204;53.896;11.432;2023-04-24T09:28:05;1.85;;;1.20;;
53315;SDS011;39204;53.896;11.432;2023-04-24T09:29:36;1.80;;;1.30;;
53315;SDS011;39204;53.896;11.432;2023-04-24T09:32:41;4.50;;;1.67;;
53315;SDS011;39204;53.896;11.432;2023-04-24T09:34:12;2.47;;;1.33;;
53315;SDS011;39204;53.896;11.432;2023-04-24T09:35:48;1.92;;;1.38;;
53315;SDS011;39204;53.896;11.432;2023-04-24T09:37:29;1.70;;;1.38;;
53315;SDS011;39204;53.896;11.432;2023-04-24T09:39:00;1.80;;;1.33;;
53315;SDS011;39204;53.896;11.432;2023-04-24T09:40:33;1.77;;;1.30;;
53315;SDS011;39204;53.896;11.432;2023-04-24T09:42:04;1.40;;;1.30;;
53315;SDS011;39204;53.896;11.432;2023-04-24T09:43:34;1.40;;;1.30;;
53315;SDS011;39204;53.896;11.432;2023-04-24T09:45:08;1.35;;;1.17;;
53315;SDS011;39204;53.896;11.432;2023-04-24T09:46:44;2.35;;;1.42;;
53315;SDS011;39204;53.896;11.432;2023-04-24T09:48:18;4.10;;;1.48;;
53315;SDS011;39204;53.896;11.432;2023-04-24T09:49:49;1.48;;;1.00;;
53315;SDS011;39204;53.896;11.432;2023-04-24T09:51:19;2.63;;;1.27;;
53315;SDS011;39204;53.896;11.432;2023-04-24T09:53:04;2.15;;;1.30;;
53315;SDS011;39204;53.896;11.432;2023-04-24T09:54:39;2.10;;;1.42;;
53315;SDS011;39204;53.896;11.432;2023-04-24T09:56:10;1.40;;;1.30;;
53315;SDS011;39204;53.896;11.432;2023-04-24T09:57:48;1.60;;;1.50;;
53315;SDS011;39204;53.896;11.432;2023-04-24T09:59:20;1.40;;;1.30;;
53315;SDS011;39204;53.896;11.432;2023-04-24T10:00:50;2.88;;;1.08;;
53315;SDS011;39204;53.896;11.432;2023-04-24T10:02:23;1.45;;;1.23;;
53315;SDS011;39204;53.896;11.432;2023-04-24T10:03:54;1.50;;;1.40;;
53315;SDS011;39204;53.896;11.432;2023-04-24T10:05:26;2.58;;;1.67;;
53315;SDS011;39204;53.896;11.432;2023-04-24T10:06:58;1.73;;;1.15;;
53315;SDS011;39204;53.896;11.432;2023-04-24T10:08:35;1.98;;;1.33;;
53315;SDS011;39204;53.896;11.432;2023-04-24T10:10:06;1.55;;;1.35;;
53315;SDS011;39204;53.896;11.432;2023-04-24T10:11:37;1.83;;;1.30;;
53315;SDS011;39204;53.896;11.432;2023-04-24T10:13:10;2.17;;;1.30;;
53315;SDS011;39204;53.896;11.432;2023-04-24T10:14:41;3.45;;;1.40;;
53315;SDS011;39204;53.896;11.432;2023-04-24T10:16:11;0.93;;;0.93;;
53315;SDS011;39204;53.896;11.432;2023-04-24T10:17:42;1.40;;;1.20;;
53315;SDS011;39204;53.896;11.432;2023-04-24T10:19:15;1.30;;;1.20;;
53315;SDS011;39204;53.896;11.432;2023-04-24T10:20:48;1.52;;;1.30;;
53315;SDS011;39204;53.896;11.432;2023-04-24T10:22:18;1.63;;;1.33;;
53315;SDS011;39204;53.896;11.432;2023-04-24T10:23:49;2.83;;;1.50;;
53315;SDS011;39204;53.896;11.432;2023-04-24T10:25:25;1.58;;;1.30;;
53315;SDS011;39204;53.896;11.432;2023-04-24T10:26:56;1.60;;;1.23;;
53315;SDS011;39204;53.896;11.432;2023-04-24T10:28:27;1.33;;;1.13;;
53315;SDS011;39204;53.896;11.432;2023-04-24T10:30:02;1.33;;;1.13;;
53315;SDS011;39204;53.896;11.432;2023-04-24T10:31:32;1.77;;;1.20;;
53315;SDS011;39204;53.896;11.432;2023-04-24T10:33:04;1.70;;;1.40;;
53315;SDS011;39204;53.896;11.432;2023-04-24T10:34:36;1.50;;;1.40;;
53315;SDS011;39204;53.896;11.432;2023-04-24T10:36:07;2.25;;;1.38;;
53315;SDS011;39204;53.896;11.432;2023-04-24T10:37:44;1.67;;;1.25;;
53315;SDS011;39204;53.896;11.432;2023-04-24T10:39:16;1.50;;;1.15;;
53315;SDS011;39204;53.896;11.432;2023-04-24T10:40:47;1.50;;;1.40;;
53315;SDS011;39204;53.896;11.432;2023-04-24T10:42:17;1.45;;;1.35;;
53315;SDS011;39204;53.896;11.432;2023-04-24T10:43:48;1.38;;;1.27;;
53315;SDS011;39204;53.896;11.432;2023-04-24T10:45:37;1.52;;;1.42;;
53315;SDS011;39204;53.896;11.432;2023-04-24T10:47:14;2.42;;;1.33;;
53315;SDS011;39204;53.896;11.432;2023-04-24T10:48:51;1.20;;;1.10;;
53315;SDS011;39204;53.896;11.432;2023-04-24T10:50:25;1.50;;;1.40;;
53315;SDS011;39204;53.896;11.432;2023-04-24T10:52:00;1.42;;;1.25;;
53315;SDS011;39204;53.896;11.432;2023-04-24T10:53:34;2.05;;;1.35;;
53315;SDS011;39204;53.896;11.432;2023-04-24T10:55:05;1.30;;;1.20;;
53315;SDS011;39204;53.896;11.432;2023-04-24T10:56:36;1.65;;;1.35;;
53315;SDS011;39204;53.896;11.432;2023-04-24T10:58:06;1.50;;;1.40;;
53315;SDS011;39204;53.896;11.432;2023-04-24T10:59:36;2.50;;;1.40;;
53315;SDS011;39204;53.896;11.432;2023-04-24T11:01:07;1.48;;;1.30;;
53315;SDS011;39204;53.896;11.432;2023-04-24T11:02:38;1.55;;;1.15;;
53315;SDS011;39204;53.896;11.432;2023-04-24T11:04:10;1.20;;;1.10;;
53315;SDS011;39204;53.896;11.432;2023-04-24T11:06:02;1.35;;;1.20;;
53315;SDS011;39204;53.896;11.432;2023-04-24T11:09:44;2.42;;;1.50;;
53315;SDS011;39204;53.896;11.432;2023-04-24T11:11:15;2.92;;;1.70;;
53315;SDS011;39204;53.896;11.432;2023-04-24T11:12:47;2.03;;;1.40;;
53315;SDS011;39204;53.896;11.432;2023-04-24T11:14:17;1.30;;;1.20;;
53315;SDS011;39204;53.896;11.432;2023-04-24T11:17:56;3.45;;;1.17;;
53315;SDS011;39204;53.896;11.432;2023-04-24T11:19:26;1.73;;;1.50;;
53315;SDS011;39204;53.896;11.432;2023-04-24T11:20:58;1.45;;;1.30;;
53315;SDS011;39204;53.896;11.432;2023-04-24T11:22:29;2.53;;;1.60;;
53315;SDS011;39204;53.896;11.432;2023-04-24T11:26:12;3.60;;;1.40;;
53315;SDS011;39204;53.896;11.432;2023-04-24T11:27:46;1.60;;;1.50;;
53315;SDS011;39204;53.896;11.432;2023-04-24T11:29:19;1.40;;;1.30;;
53315;SDS011;39204;53.896;11.432;2023-04-24T11:30:50;2.20;;;1.55;;
53315;SDS011;39204;53.896;11.432;2023-04-24T11:34:05;1.73;;;1.40;;
53315;SDS011;39204;53.896;11.432;2023-04-24T11:35:40;1.63;;;1.52;;
53315;SDS011;39204;53.896;11.432;2023-04-24T11:37:11;1.95;;;1.55;;
53315;SDS011;39204;53.896;11.432;2023-04-24T11:38:41;4.10;;;1.80;;
53315;SDS011;39204;53.896;11.432;2023-04-24T11:40:13;2.53;;;1.80;;
53315;SDS011;39204;53.896;11.432;2023-04-24T11:41:45;1.70;;;1.58;;
53315;SDS011;39204;53.896;11.432;2023-04-24T11:43:16;1.98;;;1.77;;
53315;SDS011;39204;53.896;11.432;2023-04-24T11:44:49;2.55;;;1.98;;
53315;SDS011;39204;53.896;11.432;2023-04-24T11:46:22;2.72;;;2.03;;
53315;SDS011;39204;53.896;11.432;2023-04-24T11:47:52;2.30;;;1.90;;
53315;SDS011;39204;53.896;11.432;2023-04-24T11:49:23;1.83;;;1.70;;
53315;SDS011;39204;53.896;11.432;2023-04-24T11:50:54;2.78;;;1.67;;
53315;SDS011;39204;53.896;11.432;2023-04-24T11:52:25;2.20;;;1.90;;
53315;SDS011;39204;53.896;11.432;2023-04-24T11:53:56;2.95;;;1.90;;
53315;SDS011;39204;53.896;11.432;2023-04-24T11:55:28;2.30;;;1.70;;
53315;SDS011;39204;53.896;11.432;2023-04-24T11:56:58;2.92;;;1.92;;
53315;SDS011;39204;53.896;11.432;2023-04-24T11:58:34;2.10;;;1.65;;
53315;SDS011;39204;53.896;11.432;2023-04-24T12:00:06;2.05;;;1.73;;
53315;SDS011;39204;53.896;11.432;2023-04-24T12:01:44;2.42;;;1.95;;
53315;SDS011;39204;53.896;11.432;2023-04-24T12:03:15;2.28;;;2.08;;
53315;SDS011;39204;53.896;11.432;2023-04-24T12:04:45;3.67;;;1.80;;
53315;SDS011;39204;53.896;11.432;2023-04-24T12:06:15;1.90;;;1.80;;
53315;SDS011;39204;53.896;11.432;2023-04-24T12:07:46;4.30;;;1.90;;
53315;SDS011;39204;53.896;11.432;2023-04-24T12:09:16;2.80;;;2.20;;
53315;SDS011;39204;53.896;11.432;2023-04-24T12:10:47;2.10;;;1.90;;
53315;SDS011;39204;53.896;11.432;2023-04-24T12:12:23;4.75;;;2.80;;
53315;SDS011;39204;53.896;11.432;2023-04-24T12:13:55;4.07;;;3.00;;
53315;SDS011;39204;53.896;11.432;2023-04-24T12:15:25;5.13;;;3.25;;
53315;SDS011;39204;53.896;11.432;2023-04-24T12:16:56;5.07;;;3.60;;
53315;SDS011;39204;53.896;11.432;2023-04-24T12:18:27;5.05;;;3.10;;
53315;SDS011;39204;53.896;11.432;2023-04-24T12:20:04;5.35;;;3.33;;
53315;SDS011;39204;53.896;11.432;2023-04-24T12:21:36;3.25;;;2.60;;
53315;SDS011;39204;53.896;11.432;2023-04-24T12:23:07;4.70;;;3.10;;
53315;SDS011;39204;53.896;11.432;2023-04-24T12:24:55;3.65;;;3.05;;
53315;SDS011;39204;53.896;11.432;2023-04-24T12:26:26;3.95;;;3.00;;
53315;SDS011;39204;53.896;11.432;2023-04-24T12:29:33;6.32;;;3.03;;
53315;SDS011;39204;53.896;11.432;2023-04-24T12:31:04;5.75;;;3.20;;
53315;SDS011;39204;53.896;11.432;2023-04-24T12:32:40;4.50;;;3.40;;
53315;SDS011;39204;53.896;11.432;2023-04-24T12:34:21;4.47;;;3.65;;
53315;SDS011;39204;53.896;11.432;2023-04-24T12:35:52;4.95;;;3.95;;
53315;SDS011;39204;53.896;11.432;2023-04-24T12:37:26;5.47;;;3.63;;
53315;SDS011;39204;53.896;11.432;2023-04-24T12:39:02;4.43;;;3.47;;
53315;SDS011;39204;53.896;11.432;2023-04-24T12:40:33;7.80;;;4.20;;
53315;SDS011;39204;53.896;11.432;2023-04-24T12:42:03;6.60;;;4.53;;
53315;SDS011;39204;53.896;11.432;2023-04-24T12:43:34;9.77;;;4.50;;
53315;SDS011;39204;53.896;11.432;2023-04-24T12:45:05;4.55;;;3.95;;
53315;SDS011;39204;53.896;11.432;2023-04-24T12:46:36;6.65;;;3.90;;
53315;SDS011;39204;53.896;11.432;2023-04-24T12:48:06;5.15;;;3.50;;
53315;SDS011;39204;53.896;11.432;2023-04-24T12:49:36;4.75;;;3.88;;
53315;SDS011;39204;53.896;11.432;2023-04-24T12:51:07;7.35;;;4.22;;
53315;SDS011;39204;53.896;11.432;2023-04-24T12:52:37;5.50;;;3.65;;
53315;SDS011;39204;53.896;11.432;2023-04-24T12:54:08;6.40;;;4.18;;
53315;SDS011;39204;53.896;11.432;2023-04-24T12:55:39;5.20;;;3.80;;
53315;SDS011;39204;53.896;11.432;2023-04-24T12:57:10;4.35;;;3.47;;
53315;SDS011;39204;53.896;11.432;2023-04-24T12:58:40;4.45;;;3.75;;
53315;SDS011;39204;53.896;11.432;2023-04-24T13:00:10;5.63;;;3.65;;
53315;SDS011;39204;53.896;11.432;2023-04-24T13:01:41;5.20;;;3.83;;
53315;SDS011;39204;53.896;11.432;2023-04-24T13:03:12;6.35;;;4.03;;
53315;SDS011;39204;53.896;11.432;2023-04-24T13:04:48;4.10;;;3.47;;
53315;SDS011;39204;53.896;11.432;2023-04-24T13:06:20;6.38;;;3.92;;
53315;SDS011;39204;53.896;11.432;2023-04-24T13:07:51;8.43;;;3.45;;
53315;SDS011;39204;53.896;11.432;2023-04-24T13:09:21;5.70;;;3.72;;
53315;SDS011;39204;53.896;11.432;2023-04-24T13:10:51;10.25;;;4.22;;
53315;SDS011;39204;53.896;11.432;2023-04-24T13:12:23;5.93;;;4.60;;
53315;SDS011;39204;53.896;11.432;2023-04-24T13:13:54;8.27;;;3.95;;
53315;SDS011;39204;53.896;11.432;2023-04-24T13:15:24;7.18;;;3.55;;
53315;SDS011;39204;53.896;11.432;2023-04-24T13:16:55;5.53;;;3.90;;
53315;SDS011;39204;53.896;11.432;2023-04-24T13:18:25;8.73;;;4.05;;
53315;SDS011;39204;53.896;11.432;2023-04-24T13:19:56;8.00;;;3.72;;
53315;SDS011;39204;53.896;11.432;2023-04-24T13:21:26;6.10;;;3.58;;
53315;SDS011;39204;53.896;11.432;2023-04-24T13:22:57;5.90;;;3.40;;
53315;SDS011;39204;53.896;11.432;2023-04-24T13:24:27;4.20;;;3.22;;
53315;SDS011;39204;53.896;11.432;2023-04-24T13:25:57;4.93;;;3.40;;
53315;SDS011;39204;53.896;11.432;2023-04-24T13:27:28;5.07;;;4.00;;
53315;SDS011;39204;53.896;11.432;2023-04-24T13:28:58;4.57;;;3.50;;
53315;SDS011;39204;53.896;11.432;2023-04-24T13:30:28;4.57;;;3.08;;
53315;SDS011;39204;53.896;11.432;2023-04-24T13:31:59;6.00;;;3.75;;
53315;SDS011;39204;53.896;11.432;2023-04-24T13:33:29;3.92;;;3.10;;
53315;SDS011;39204;53.896;11.432;2023-04-24T13:34:59;4.88;;;3.28;;
53315;SDS011;39204;53.896;11.432;2023-04-24T13:36:30;4.88;;;3.53;;
53315;SDS011;39204;53.896;11.432;2023-04-24T13:38:01;5.30;;;3.30;;
53315;SDS011;39204;53.896;11.432;2023-04-24T13:39:35;4.57;;;3.10;;
53315;SDS011;39204;53.896;11.432;2023-04-24T13:41:06;6.05;;;3.10;;
53315;SDS011;39204;53.896;11.432;2023-04-24T13:42:36;4.63;;;3.42;;
53315;SDS011;39204;53.896;11.432;2023-04-24T13:44:06;4.10;;;2.97;;
53315;SDS011;39204;53.896;11.432;2023-04-24T13:45:36;7.97;;;3.42;;
53315;SDS011;39204;53.896;11.432;2023-04-24T13:47:07;3.90;;;3.25;;
53315;SDS011;39204;53.896;11.432;2023-04-24T13:48:38;5.25;;;3.20;;
53315;SDS011;39204;53.896;11.432;2023-04-24T13:50:08;5.32;;;3.20;;
53315;SDS011;39204;53.896;11.432;2023-04-24T13:51:40;4.07;;;3.65;;
53315;SDS011;39204;53.896;11.432;2023-04-24T13:53:11;4.88;;;3.10;;
53315;SDS011;39204;53.896;11.432;2023-04-24T13:54:41;4.60;;;3.40;;
53315;SDS011;39204;53.896;11.432;2023-04-24T13:56:11;9.07;;;3.53;;
53315;SDS011;39204;53.896;11.432;2023-04-24T13:57:43;4.85;;;3.22;;
53315;SDS011;39204;53.896;11.432;2023-04-24T13:59:13;5.93;;;3.10;;
53315;SDS011;39204;53.896;11.432;2023-04-24T14:00:44;4.68;;;3.47;;
53315;SDS011;39204;53.896;11.432;2023-04-24T14:02:14;10.82;;;3.38;;
53315;SDS011;39204;53.896;11.432;2023-04-24T14:03:45;5.00;;;3.22;;
53315;SDS011;39204;53.896;11.432;2023-04-24T14:05:15;3.70;;;2.85;;
53315;SDS011;39204;53.896;11.432;2023-04-24T14:06:45;3.78;;;2.70;;
53315;SDS011;39204;53.896;11.432;2023-04-24T14:08:16;5.13;;;3.00;;
53315;SDS011;39204;53.896;11.432;2023-04-24T14:09:46;3.53;;;2.83;;
53315;SDS011;39204;53.896;11.432;2023-04-24T14:11:17;3.63;;;2.85;;
53315;SDS011;39204;53.896;11.432;2023-04-24T14:12:47;4.45;;;2.88;;
53315;SDS011;39204;53.896;11.432;2023-04-24T14:14:18;4.82;;;3.05;;
53315;SDS011;39204;53.896;11.432;2023-04-24T14:15:48;2.97;;;2.53;;
53315;SDS011;39204;53.896;11.432;2023-04-24T14:17:18;3.92;;;2.67;;
53315;SDS011;39204;53.896;11.432;2023-04-24T14:18:49;7.65;;;2.90;;
53315;SDS011;39204;53.896;11.432;2023-04-24T14:20:20;6.65;;;2.90;;
53315;SDS011;39204;53.896;11.432;2023-04-24T14:21:50;3.38;;;2.55;;
53315;SDS011;39204;53.896;11.432;2023-04-24T14:23:21;6.20;;;2.60;;
53315;SDS011;39204;53.896;11.432;2023-04-24T14:24:51;8.50;;;3.20;;
53315;SDS011;39204;53.896;11.432;2023-04-24T14:26:21;3.05;;;2.47;;
53315;SDS011;39204;53.896;11.432;2023-04-24T14:27:51;2.83;;;2.50;;